South San Francisco, CA (94083)

3:10 PM PDT on July 02, 2015 (GMT -0700)
bel air | | Change Station
CLOSE
Current Station
Personal Weather Station
Location: San Bruno, CA
Elevation: 7 ft
Nearby Weather Stations

Elev 7 ft 37.63 °N, 122.41 °W | Updated 3 minutes ago

Mostly Cloudy
Mostly Cloudy
76.6 °F
Feels Like 78 °F
N
2.2
Wind Variable Wind from NE

Today
High -- | Low -- °F
--% Chance of Precip.
Yesterday
High -- | Low -- °F
Precip. -- in
5:52 AM 8:35 PM
Full, 99% visible
Pressure 29.94 in
Visibility 10.0 miles
Clouds Few 700 ft
Mostly Cloudy 18000 ft
Heat Index 78 °F
Dew Point 61 °F
Humidity 58%
Rainfall 0.00 in
Snow Depth Not available.
UV 6 out of 12
Pollen 4.80 out of 12
Air Quality Not available.
Flu Activity Not available.
METAR KSFO 022156Z 32013KT 10SM FEW007 BKN180 22/14 A2994 RMK AO2 SLP139 T02170144

More Conditions Fewer Conditions

Pressure 29.94 in
Visibility 10.0 miles
Clouds Few 700 ft
Mostly Cloudy 18000 ft
Heat Index 78 °F
Dew Point 61 °F
Humidity 58%
Rainfall 0.00 in
Snow Depth Not available.
UV 6 out of 12
Pollen 4.80 out of 12
Air Quality Not available.
Flu Activity Not available.
METAR KSFO 022156Z 32013KT 10SM FEW007 BKN180 22/14 A2994 RMK AO2 SLP139 T02170144

More Conditions Fewer Conditions

10-Day Weather Forecast

×

Almanac

Astronomy

Jul. 02, 2015 Rise Set
Actual Time
Civil Twilight
Nautical Twilight
Astronomical Twilight
Moon
Length of Visible Light
Length of Day
Tomorrow will be .
, % of the Moon is Illuminated

Today's Extremes

State Highs State Lows

Community

WunderPhotos

Upload Photos

1,834,560 photos uploaded!

WunderBlogs® & News

Nearby

Air Quality

  Air Quality AQ Index Pollutant
Not available.

Snow Depth

Station Depth Elevation

Earthquake Activity

City Distance Mag. Time & Date
Minimum magnitude displayed is 2.5.

Coastal Water Temperatures

Place Temperature

Stations

Nearby Weather Stations

Station Location Temp. Windchill Dew Point Humidity Wind Precip. Elev Updated Type